VOG weather

Volgograd International Airport
Volgograd, Volgograd Oblast, Russia

Public forecast

Using degrees Celsius for public forecast. Weather courtesy of forecast.io.

Current aviation weather report (METAR) for Volgograd International Airport

Retrieved 2020/06/06 09:30 UTC (14 minutes ago):

URWW 060930Z 21005MPS CAVOK 25/09 Q1020 R24/010070 NOSIG

Aviation forecast (TAF) for Volgograd International Airport

Forecast is more than 12 hours old.

Retrieved 2015/12/24 15:15 UTC (4 years ago):

TAF COR TAF COR URWW 241510Z 2415/2524 30013G18MPS 9999 BKN007 SCT020CB BKN100 TEMPO 2415/2421 27008G13MPS 2100 -SHRA BR